»·PEaware :: UAL401 KMFR-KSFO

UAL401 :: KMFR-KSFO

FLIGHT INFORMATION

Flight Status: Arrived
Operator:
United Airlines
More flights by this operator :: More flights under this callsign
Pilot: Brandon F. (14792)
Aircraft: Unknown
(A359)
More flights by this aircraft type
Origin: KMFR Rogue Valley Intl-Medford
United States
Destination: KSFO San Francisco Intl
United States
More flights between these airports :: More routes between these airports
Route: JKSN1 OED MLBEC BDEGA3
File this flight plan on PilotEdge
Remarks:
Altitude:
(Current/Filed)
36,000ft
Speed:
(Current/Filed)
508kts
Departed: 02-Jan-19 04:43 PM
Arrived: 02-Jan-19 05:47 PM
Distance/Time
Traveled:
286nm/1:03
Distance/Time
To Go:
Arrived

Flight Plot

Page will automatically refresh every two minutes.

Flight plan parsing failed; only flown route is shown


Map Options




Map Legend


Flown Route
Filed Route
Departure Airport
Arrival Airport
Navaid (VOR, NDB)
Fix

Horizontal Profiles

Position Reports

Time Latitude Longitude Heading Altitude Ground
Speed
02-Jan-19 16:13 42.369026 -122.873246 258 1348ft 0kts
02-Jan-19 16:14 42.369026 -122.873246 258 1348ft 0kts
02-Jan-19 16:15 42.369026 -122.873246 258 1348ft 0kts
02-Jan-19 16:16 42.369026 -122.873246 258 1348ft 0kts
02-Jan-19 16:17 42.369026 -122.873246 258 1348ft 0kts
02-Jan-19 16:18 42.369026 -122.873246 258 1348ft 0kts
02-Jan-19 16:19 42.369026 -122.873246 258 1348ft 0kts
02-Jan-19 16:20 42.369026 -122.873246 258 1348ft 0kts
02-Jan-19 16:21 42.369026 -122.873246 258 1348ft 0kts
02-Jan-19 16:22 42.369026 -122.873246 258 1348ft 0kts
02-Jan-19 16:23 42.369026 -122.873246 258 1348ft 0kts
02-Jan-19 16:24 42.369026 -122.873246 258 1348ft 0kts
02-Jan-19 16:25 42.369026 -122.873246 258 1348ft 0kts
02-Jan-19 16:26 42.369026 -122.873246 258 1348ft 0kts
02-Jan-19 16:27 42.369026 -122.873246 258 1348ft 0kts
02-Jan-19 16:28 42.369026 -122.873246 258 1348ft 0kts
02-Jan-19 16:29 42.369026 -122.873246 258 1348ft 0kts
02-Jan-19 16:30 42.369026 -122.873246 258 1348ft 0kts
02-Jan-19 16:31 42.369026 -122.873246 258 1348ft 0kts
02-Jan-19 16:32 42.369026 -122.873246 258 1348ft 0kts
02-Jan-19 16:33 42.369026 -122.873246 258 1348ft 0kts
02-Jan-19 16:34 42.369108 -122.872719 259 1348ft 3kts
02-Jan-19 16:35 42.369223 -122.872479 165 1348ft 0kts
02-Jan-19 16:36 42.369223 -122.872479 165 1348ft 0kts
02-Jan-19 16:37 42.369223 -122.872479 165 1348ft 0kts
02-Jan-19 16:38 42.369223 -122.872479 165 1348ft 0kts
02-Jan-19 16:39 42.369222 -122.872479 165 1348ft 0kts
02-Jan-19 16:40 42.366502 -122.870372 158 1348ft 13kts
02-Jan-19 16:41 42.363931 -122.869035 152 1348ft 7kts
02-Jan-19 16:42 42.369384 -122.870369 338 1348ft 117kts
02-Jan-19 16:43 42.420508 -122.895466 340 4028ft 241kts
02-Jan-19 16:44 42.484943 -122.914744 344 7507ft 232kts
02-Jan-19 16:45 42.508340 -122.844949 133 9483ft 304kts
02-Jan-19 16:46 42.451223 -122.857988 236 14079ft 236kts
02-Jan-19 16:47 42.398430 -122.924765 192 16569ft 290kts
02-Jan-19 16:48 42.311735 -122.914734 183 19293ft 317kts
02-Jan-19 16:49 42.222412 -122.915772 184 21953ft 334kts
02-Jan-19 16:50 42.127568 -122.917064 184 24452ft 350kts
02-Jan-19 16:51 42.029098 -122.918356 184 26795ft 365kts
02-Jan-19 16:52 41.926121 -122.919727 184 28982ft 379kts
02-Jan-19 16:53 41.819154 -122.921128 184 30957ft 396kts
02-Jan-19 16:54 41.705826 -122.922595 183 32613ft 417kts
02-Jan-19 16:55 41.588132 -122.924106 183 34445ft 431kts
02-Jan-19 16:56 41.467076 -122.925676 183 36163ft 443kts
02-Jan-19 16:57 41.342262 -122.927311 183 36278ft 471kts
02-Jan-19 16:58 41.205281 -122.929094 183 36277ft 510kts
02-Jan-19 16:59 41.063755 -122.930826 183 36275ft 509kts
02-Jan-19 17:00 40.923101 -122.932640 183 36237ft 506kts
02-Jan-19 17:01 40.783215 -122.934419 183 36211ft 506kts
02-Jan-19 17:02 40.642694 -122.936223 183 36206ft 506kts
02-Jan-19 17:03 40.502424 -122.938010 183 36205ft 506kts
02-Jan-19 17:04 40.363368 -122.939748 183 36205ft 506kts
02-Jan-19 17:05 40.222995 -122.941506 183 36208ft 506kts
02-Jan-19 17:06 40.082594 -122.943272 183 36223ft 506kts
02-Jan-19 17:07 39.942579 -122.945035 183 36226ft 506kts
02-Jan-19 17:08 39.827819 -122.946475 183 36226ft 506kts
02-Jan-19 17:09 39.687704 -122.948231 183 36222ft 506kts
02-Jan-19 17:10 39.546986 -122.949977 183 36215ft 506kts
02-Jan-19 17:11 39.407826 -122.951695 183 36213ft 506kts
02-Jan-19 17:12 39.268934 -122.953382 183 35296ft 498kts
02-Jan-19 17:13 39.132104 -122.955101 183 33597ft 486kts
02-Jan-19 17:14 38.999171 -122.956790 183 31903ft 474kts
02-Jan-19 17:15 38.870568 -122.953701 175 30231ft 469kts
02-Jan-19 17:16 38.757011 -122.923433 168 28703ft 460kts
02-Jan-19 17:17 38.643478 -122.889825 168 27114ft 436kts
02-Jan-19 17:18 38.528037 -122.855875 168 25431ft 424kts
02-Jan-19 17:19 38.417178 -122.823305 168 23773ft 415kts
02-Jan-19 17:20 38.312751 -122.792786 167 22178ft 407kts
02-Jan-19 17:21 38.209231 -122.762559 167 20559ft 396kts
02-Jan-19 17:22 38.104690 -122.732200 167 18928ft 385kts
02-Jan-19 17:23 38.002738 -122.702661 167 16421ft 372kts
02-Jan-19 17:24 37.904892 -122.671056 155 13983ft 359kts
02-Jan-19 17:25 37.827739 -122.597032 137 11914ft 347kts
02-Jan-19 17:26 37.756570 -122.521467 137 10999ft 336kts
02-Jan-19 17:27 37.692762 -122.453779 137 10993ft 306kts
02-Jan-19 17:28 37.631524 -122.388585 136 10990ft 306kts
02-Jan-19 17:29 37.558449 -122.337397 153 10990ft 309kts
02-Jan-19 17:30 37.489439 -122.297008 153 10163ft 276kts
02-Jan-19 17:31 37.423923 -122.258333 153 8680ft 268kts
02-Jan-19 17:32 37.367232 -122.210728 117 7396ft 256kts
02-Jan-19 17:33 37.342385 -122.147524 113 6298ft 251kts
02-Jan-19 17:34 37.325305 -122.082739 64 6006ft 224kts
02-Jan-19 17:35 37.364528 -122.050311 23 6013ft 171kts
02-Jan-19 17:36 37.404148 -122.039727 353 5579ft 163kts
02-Jan-19 17:37 37.438530 -122.044065 352 4669ft 158kts
02-Jan-19 17:38 37.471045 -122.065591 322 4027ft 147kts
02-Jan-19 17:39 37.499900 -122.099606 307 4001ft 147kts
02-Jan-19 17:40 37.520483 -122.141789 300 3780ft 147kts
02-Jan-19 17:41 37.539923 -122.186469 298 3024ft 147kts
02-Jan-19 17:42 37.558671 -122.231056 297 2264ft 148kts
02-Jan-19 17:43 37.577351 -122.275931 297 1494ft 148kts
02-Jan-19 17:44 37.595319 -122.319094 297 753ft 142kts
02-Jan-19 17:45 37.611964 -122.359332 297 84ft 131kts
02-Jan-19 17:46 37.618840 -122.375812 283 27ft 10kts
02-Jan-19 17:47 37.619246 -122.380044 238 27ft 6kts
02-Jan-19 17:48 37.620233 -122.383405 297 27ft 19kts
02-Jan-19 17:49 37.621791 -122.387765 248 27ft 5kts

Navigation Log

Ident Type
Flight plan parsing failed, navigation log unavailable